Time;durP1;ratioP1;P1;durP2;ratioP2;P2;SDS_P1;SDS_P2;PMS_P1;PMS_P2;Temp;Humidity;BMP_temperature;BMP_pressure;BME280_temperature;BME280_humidity;BME280_pressure;Samples;Min_cycle;Max_cycle;Signal;HPM_P1;HPM_P2
2022/06/25 00:00:18;;;;;;;4.78;3.80;;;;;;;20.95;50.62;99535.38;30863017;28;98496;-69
2022/06/25 00:15:18;;;;;;;5.10;3.35;;;;;;;21.11;50.37;99517.41;30863218;28;96821;-67
2022/06/25 00:30:19;;;;;;;6.57;3.65;;;;;;;21.16;49.98;99509.34;30860970;28;96828;-67
2022/06/25 00:45:19;;;;;;;7.50;3.70;;;;;;;20.68;50.73;99524.50;30860804;28;96667;-68
2022/06/25 01:00:20;;;;;;;7.32;4.30;;;;;;;20.09;52.93;99550.25;30858356;28;96841;-67
2022/06/25 01:15:21;;;;;;;6.72;4.13;;;;;;;19.91;54.02;99525.13;30858159;28;96691;-72
2022/06/25 01:30:21;;;;;;;5.55;4.10;;;;;;;19.74;54.65;99521.63;30856613;28;96688;-72
2022/06/25 01:45:21;;;;;;;7.55;4.18;;;;;;;19.72;55.37;99534.56;30855787;28;96636;-67
2022/06/25 02:00:25;;;;;;;5.05;3.83;;;;;;;19.72;55.65;99542.66;30854987;28;97215;-68
2022/06/25 02:15:25;;;;;;;5.63;4.07;;;;;;;19.67;56.12;99545.28;30873636;28;96904;-68
2022/06/25 02:30:25;;;;;;;7.65;4.28;;;;;;;19.66;56.33;99549.06;30873506;28;96765;-72
2022/06/25 02:45:26;;;;;;;5.30;3.92;;;;;;;19.62;56.68;99554.94;30872442;28;96641;-72
2022/06/25 03:00:26;;;;;;;8.15;4.30;;;;;;;19.63;56.72;99574.69;30870742;28;96767;-72
2022/06/25 03:15:26;;;;;;;6.90;3.90;;;;;;;19.66;56.87;99586.91;30866248;28;96849;-68
2022/06/25 03:30:27;;;;;;;5.13;3.92;;;;;;;19.71;57.04;99604.00;30865831;28;96860;-68
2022/06/25 03:45:27;;;;;;;5.35;4.35;;;;;;;19.68;57.01;99642.31;30863290;28;96698;-68
2022/06/25 04:00:27;;;;;;;8.90;4.20;;;;;;;19.62;57.22;99651.41;30862444;28;97393;-67
2022/06/25 04:15:28;;;;;;;7.43;4.22;;;;;;;19.61;57.61;99644.34;30860828;28;96683;-66
2022/06/25 04:30:28;;;;;;;6.10;4.25;;;;;;;19.73;57.91;99652.41;30858329;28;96779;-68
2022/06/25 04:45:29;;;;;;;7.40;4.68;;;;;;;19.90;58.22;99650.56;30859809;28;97420;-69
2022/06/25 05:00:29;;;;;;;6.97;4.78;;;;;;;19.89;59.14;99657.03;30857479;28;96779;-68
2022/06/25 05:15:30;;;;;;;9.38;5.13;;;;;;;20.37;59.57;99681.84;30855298;28;97528;-67
2022/06/25 05:30:32;;;;;;;8.80;4.13;;;;;;;20.74;59.16;99699.44;30854112;28;96687;-71
2022/06/25 05:45:32;;;;;;;8.53;4.47;;;;;;;20.80;59.56;99706.56;30853124;28;96668;-67
2022/06/25 06:00:33;;;;;;;6.75;4.63;;;;;;;20.99;60.01;99708.97;30853546;28;96750;-67
2022/06/25 06:15:33;;;;;;;10.80;4.78;;;;;;;21.13;59.94;99710.22;30851781;28;96802;-68
2022/06/25 06:30:33;;;;;;;7.78;4.40;;;;;;;21.51;60.13;99705.78;30852094;28;96678;-68
2022/06/25 06:45:34;;;;;;;5.17;2.87;;;;;;;22.64;57.65;99714.94;30848984;28;96652;-67
2022/06/25 07:00:34;;;;;;;6.27;3.20;;;;;;;23.73;55.46;99710.78;30865310;28;96809;-69
2022/06/25 07:15:34;;;;;;;6.18;3.67;;;;;;;24.31;53.44;99728.81;30866372;28;96774;-72
2022/06/25 07:30:34;;;;;;;;;;;;;;;24.53;52.47;99723.06;30863549;28;96734;-77
2022/06/25 07:45:35;;;;;;;3.20;2.77;;;;;;;25.40;50.49;99730.22;30738437;28;98276;-69
2022/06/25 08:00:35;;;;;;;6.10;3.00;;;;;;;26.57;47.32;99745.22;30735083;28;97108;-68
2022/06/25 08:15:36;;;;;;;4.82;2.88;;;;;;;26.83;46.71;99756.72;30728624;28;97054;-70
2022/06/25 08:30:39;;;;;;;6.75;2.80;;;;;;;28.25;44.35;99762.56;30738260;28;97358;-69
2022/06/25 08:45:40;;;;;;;4.00;3.00;;;;;;;28.94;41.70;99740.00;30738040;28;96770;-72
2022/06/25 09:00:42;;;;;;;4.75;2.90;;;;;;;29.37;39.49;99758.06;30736226;28;96763;-69
2022/06/25 09:15:45;;;;;;;4.33;3.40;;;;;;;28.87;39.40;99769.75;30733199;28;97519;-69
2022/06/25 09:30:45;;;;;;;5.07;3.40;;;;;;;29.66;38.69;99768.69;30733066;28;96917;-71
2022/06/25 09:45:47;;;;;;;4.78;3.38;;;;;;;30.74;36.33;99761.75;30731220;28;97889;-68
2022/06/25 10:00:48;;;;;;;4.17;3.60;;;;;;;29.29;37.34;99759.59;30731620;28;97282;-72
2022/06/25 10:15:49;;;;;;;5.53;3.80;;;;;;;29.20;37.75;99784.16;30731663;28;96734;-72
2022/06/25 10:30:56;;;;;;;4.10;3.70;;;;;;;29.34;38.03;99764.16;30749199;28;96709;-67
2022/06/25 10:45:57;;;;;;;7.07;3.77;;;;;;;30.54;37.36;99759.22;30862702;28;97706;-73
2022/06/25 11:01:02;;;;;;;4.95;3.83;;;;;;;30.88;35.94;99765.22;30861320;28;97832;-67
2022/06/25 11:16:12;;;;;;;9.97;4.13;;;;;;;31.52;34.60;99763.94;30856381;28;97647;-69
2022/06/25 11:31:13;;;;;;;6.03;3.70;;;;;;;32.18;32.86;99760.31;30855399;28;97165;-69
2022/06/25 11:46:18;;;;;;;5.77;3.60;;;;;;;31.54;33.32;99751.47;30851932;28;96951;-73
2022/06/25 12:01:18;;;;;;;4.70;3.37;;;;;;;32.12;32.77;99754.09;30846121;28;97116;-71
2022/06/25 12:16:19;;;;;;;5.70;3.38;;;;;;;32.53;31.57;99755.53;30848449;28;98455;-67
2022/06/25 12:31:19;;;;;;;6.68;3.58;;;;;;;32.01;31.81;99747.31;30853456;28;98038;-68
2022/06/25 12:46:20;;;;;;;4.05;2.97;;;;;;;32.33;31.03;99748.75;30823653;28;97308;-68
2022/06/25 13:01:23;;;;;;;6.20;3.42;;;;;;;30.91;32.43;99772.81;30846869;28;97123;-71
2022/06/25 13:16:23;;;;;;;5.87;3.37;;;;;;;30.76;31.93;99759.50;30840958;28;97425;-68
2022/06/25 13:31:23;;;;;;;4.75;3.05;;;;;;;30.65;32.50;99757.00;30846846;28;107131;-67
2022/06/25 13:46:24;;;;;;;8.23;3.30;;;;;;;30.55;34.23;99763.59;30842746;28;97273;-67
2022/06/25 14:01:25;;;;;;;5.32;3.10;;;;;;;30.27;34.72;99751.09;30850718;28;97682;-73
2022/06/25 14:16:25;;;;;;;5.28;3.15;;;;;;;30.46;34.27;99753.69;30869711;28;96968;-69
2022/06/25 14:31:26;;;;;;;5.03;2.50;;;;;;;30.82;33.85;99747.22;30857328;28;97448;-67
2022/06/25 14:46:27;;;;;;;3.97;2.63;;;;;;;31.15;33.14;99725.69;30855819;28;97920;-72
2022/06/25 15:01:27;;;;;;;3.75;2.45;;;;;;;30.93;32.28;99720.25;30855878;28;97281;-68
2022/06/25 15:16:31;;;;;;;6.18;4.40;;;;;;;30.44;32.95;99714.66;30849294;28;97227;-70
2022/06/25 15:31:31;;;;;;;7.40;3.50;;;;;;;29.93;32.79;99703.84;30862276;28;96800;-67
2022/06/25 15:46:31;;;;;;;4.50;2.40;;;;;;;30.21;32.29;99704.53;30858250;28;96704;-69
2022/06/25 16:01:32;;;;;;;5.57;3.70;;;;;;;30.59;32.23;99707.97;30849844;28;97609;-70
2022/06/25 16:16:32;;;;;;;5.07;2.45;;;;;;;29.93;32.60;99720.34;30850056;28;97415;-68
2022/06/25 16:31:33;;;;;;;6.63;2.80;;;;;;;29.69;33.25;99735.13;30834112;28;104873;-73
2022/06/25 16:46:46;;;;;;;3.53;2.57;;;;;;;29.73;33.28;99734.50;30840166;28;97032;-71
2022/06/25 17:01:47;;;;;;;4.33;2.50;;;;;;;29.61;33.03;99738.63;30845556;28;97674;-68
2022/06/25 17:16:47;;;;;;;3.53;2.60;;;;;;;29.22;33.11;99748.19;30850153;28;97251;-69
2022/06/25 17:31:48;;;;;;;4.72;2.88;;;;;;;28.68;35.32;99750.63;30853501;28;96615;-71
2022/06/25 17:46:48;;;;;;;4.55;2.70;;;;;;;28.29;36.14;99755.34;30853375;28;97723;-67
2022/06/25 18:01:49;;;;;;;7.60;3.78;;;;;;;28.04;37.00;99770.28;30867668;28;97996;-68
2022/06/25 18:16:49;;;;;;;5.05;3.53;;;;;;;27.70;37.97;99788.53;30852602;28;96766;-72
2022/06/25 18:31:50;;;;;;;5.22;3.58;;;;;;;27.21;39.08;99808.81;30823133;28;96702;-72
2022/06/25 18:46:51;;;;;;;8.85;3.67;;;;;;;26.82;40.51;99828.91;30722959;28;105852;-70
2022/06/25 19:01:51;;;;;;;7.17;5.23;;;;;;;26.60;42.09;99842.97;30737100;28;96806;-67
2022/06/25 19:16:52;;;;;;;14.73;6.60;;;;;;;26.33;43.91;99872.41;30734667;28;97442;-74
2022/06/25 19:31:53;;;;;;;8.38;4.35;;;;;;;26.09;45.03;99893.28;30735667;28;97508;-70
2022/06/25 19:46:53;;;;;;;7.37;4.17;;;;;;;26.22;45.77;99900.88;30733638;28;97222;-67
2022/06/25 20:01:53;;;;;;;9.35;4.60;;;;;;;26.26;45.95;99896.47;30732229;28;96815;-68
2022/06/25 20:16:54;;;;;;;8.38;4.57;;;;;;;26.12;46.40;99903.63;30730889;28;97285;-68
2022/06/25 20:31:54;;;;;;;9.68;4.78;;;;;;;26.08;46.93;99908.88;30729577;28;97478;-74
2022/06/25 20:46:54;;;;;;;9.68;4.25;;;;;;;25.94;47.64;99913.25;30729996;28;97334;-66
2022/06/25 21:01:55;;;;;;;9.30;4.40;;;;;;;25.93;47.91;99908.88;30786271;28;96829;-73
2022/06/25 21:16:55;;;;;;;7.00;4.43;;;;;;;25.73;48.46;99907.88;30846182;28;96800;-67
2022/06/25 21:31:56;;;;;;;18.08;11.55;;;;;;;25.07;49.62;99906.06;30846412;28;97313;-71
2022/06/25 21:46:56;;;;;;;24.45;7.13;;;;;;;24.39;51.31;99894.31;30846538;28;97379;-71
2022/06/25 22:01:57;;;;;;;11.32;5.82;;;;;;;23.72;53.26;99901.41;30845468;28;96751;-68
2022/06/25 22:16:57;;;;;;;;;;;;;;;23.34;54.37;99914.25;30844356;28;97044;-71
2022/06/25 22:31:58;;;;;;;10.10;7.10;;;;;;;23.39;56.03;99919.69;30787060;28;96960;-71
2022/06/25 22:46:58;;;;;;;7.88;4.78;;;;;;;22.74;57.03;99925.97;30751173;28;96682;-71
2022/06/25 23:01:58;;;;;;;9.73;5.93;;;;;;;22.33;58.49;99930.97;30750150;28;96677;-70
2022/06/25 23:16:59;;;;;;;9.70;5.80;;;;;;;22.40;59.76;99933.50;30748417;28;96744;-71
2022/06/25 23:32:00;;;;;;;8.87;5.43;;;;;;;22.28;59.84;99937.16;30745332;28;96763;-70
2022/06/25 23:47:01;;;;;;;12.25;6.18;;;;;;;21.79;60.84;99926.25;30745689;28;97505;-69
